createdAt,value
2022-10-11T00:02:49.426Z,59.93
2022-10-11T00:07:52.127Z,60.06
2022-10-11T00:12:54.342Z,60.15
2022-10-11T00:17:57.114Z,60.17
2022-10-11T00:22:59.295Z,60.15
2022-10-11T00:28:01.701Z,60.31
2022-10-11T00:33:04.040Z,60.16
2022-10-11T00:38:06.490Z,60.34
2022-10-11T00:43:22.047Z,60.30
2022-10-11T00:48:29.591Z,60.27
2022-10-11T00:53:33.201Z,60.21
2022-10-11T00:58:36.926Z,60.17
2022-10-11T01:03:39.937Z,59.73
2022-10-11T01:08:42.619Z,59.67
2022-10-11T01:14:13.831Z,59.83
2022-10-11T01:19:37.670Z,59.73
2022-10-11T01:24:39.794Z,59.83
2022-10-11T01:30:06.097Z,60.04
2022-10-11T01:35:15.876Z,60.11
2022-10-11T01:40:42.394Z,59.92
2022-10-11T01:45:46.148Z,59.63
2022-10-11T01:50:53.607Z,59.29
2022-10-11T01:56:09.618Z,59.45
2022-10-11T02:01:27.762Z,59.46
2022-10-11T02:06:58.591Z,59.05
2022-10-11T02:12:13.081Z,59.37
2022-10-11T02:17:20.304Z,59.88
2022-10-11T02:22:44.695Z,59.50
2022-10-11T02:27:50.959Z,59.90
2022-10-11T02:32:55.049Z,60.33
2022-10-11T02:38:13.936Z,60.73
2022-10-11T02:43:33.522Z,60.90
2022-10-11T02:48:36.632Z,61.08
2022-10-11T02:53:39.009Z,61.20
2022-10-11T02:58:41.383Z,61.25
2022-10-11T03:03:43.587Z,61.31
2022-10-11T03:08:46.030Z,61.43
2022-10-11T03:13:48.451Z,61.46
2022-10-11T03:18:50.984Z,61.68
2022-10-11T03:23:53.337Z,62.06
2022-10-11T03:28:55.831Z,62.89
2022-10-11T03:33:58.099Z,62.64
2022-10-11T03:39:01.078Z,62.91
2022-10-11T03:44:03.393Z,62.78
2022-10-11T03:49:05.820Z,63.21
2022-10-11T03:54:08.193Z,62.98
2022-10-11T03:59:11.122Z,63.01
2022-10-11T04:04:13.325Z,63.43
2022-10-11T04:09:15.542Z,63.63
2022-10-11T04:14:17.969Z,63.66
2022-10-11T04:19:20.625Z,63.66
2022-10-11T04:24:22.939Z,63.58
2022-10-11T04:29:31.430Z,63.98
2022-10-11T04:34:34.939Z,63.51
2022-10-11T04:39:37.688Z,64.02
2022-10-11T04:44:40.046Z,63.92
2022-10-11T04:49:42.265Z,64.03
2022-10-11T04:54:44.526Z,64.52
2022-10-11T04:59:50.215Z,65.72
2022-10-11T05:04:52.659Z,65.69
2022-10-11T05:09:55.061Z,65.32
2022-10-11T05:14:58.493Z,65.57
2022-10-11T05:20:00.839Z,65.26
2022-10-11T05:25:03.134Z,65.18
2022-10-11T05:30:06.134Z,65.14
2022-10-11T05:35:08.812Z,65.23
2022-10-11T05:40:11.626Z,64.70
2022-10-11T05:45:13.923Z,64.67
2022-10-11T05:50:19.636Z,64.33
2022-10-11T05:55:24.702Z,64.05
2022-10-11T06:00:27.619Z,63.82
2022-10-11T06:06:25.695Z,63.52
2022-10-11T06:11:28.508Z,63.62
2022-10-11T06:16:30.673Z,63.55
2022-10-11T06:21:33.473Z,63.55
2022-10-11T06:26:35.895Z,63.55
2022-10-11T06:31:38.107Z,63.88
2022-10-11T06:36:40.394Z,63.74
2022-10-11T06:41:42.676Z,63.65
2022-10-11T06:46:44.844Z,63.75
2022-10-11T06:51:47.212Z,63.53
2022-10-11T06:56:49.713Z,63.30
2022-10-11T07:01:51.876Z,63.43
2022-10-11T07:06:54.079Z,63.75
2022-10-11T07:11:56.273Z,63.15
2022-10-11T07:16:58.486Z,63.72
2022-10-11T07:22:00.778Z,63.08
2022-10-11T07:27:03.731Z,63.40
2022-10-11T07:32:06.639Z,63.11
2022-10-11T07:37:09.050Z,62.81
2022-10-11T07:42:11.339Z,62.63
2022-10-11T07:47:13.635Z,62.39
2022-10-11T07:52:15.830Z,62.31
2022-10-11T07:57:18.024Z,62.04
2022-10-11T08:02:20.305Z,61.85
2022-10-11T08:07:22.557Z,61.96
2022-10-11T08:12:24.710Z,61.97
2022-10-11T08:17:27.074Z,62.15
2022-10-11T08:22:29.259Z,62.14
2022-10-11T08:27:31.733Z,61.91
2022-10-11T08:32:34.186Z,61.11
2022-10-11T08:37:36.583Z,60.28
2022-10-11T08:43:14.263Z,59.57
2022-10-11T08:48:27.250Z,58.76
2022-10-11T08:53:57.394Z,58.40
2022-10-11T08:59:04.905Z,57.89
2022-10-11T09:04:10.880Z,56.76
2022-10-11T09:09:53.299Z,56.74
2022-10-11T09:15:03.726Z,56.33
2022-10-11T09:20:31.842Z,56.00
2022-10-11T09:25:38.385Z,55.56
2022-10-11T09:30:48.745Z,55.20
2022-10-11T09:35:52.771Z,54.91
2022-10-11T09:41:19.298Z,54.62
2022-10-11T09:46:35.161Z,54.33
2022-10-11T09:51:38.312Z,54.24
2022-10-11T09:56:44.355Z,53.80
2022-10-11T10:01:46.813Z,53.80
2022-10-11T10:06:49.102Z,53.43
2022-10-11T10:11:51.824Z,53.44
2022-10-11T10:17:15.960Z,53.34
2022-10-11T10:22:27.977Z,53.05
2022-10-11T10:27:31.765Z,52.32
2022-10-11T10:32:54.094Z,52.34
2022-10-11T10:38:17.020Z,52.18
2022-10-11T10:43:22.230Z,52.11
2022-10-11T10:49:23.227Z,51.68
2022-10-11T10:54:23.817Z,51.68
2022-10-11T10:59:31.773Z,51.62
2022-10-11T11:04:35.826Z,51.77
2022-10-11T11:10:02.530Z,51.43
2022-10-11T11:15:19.599Z,51.15
2022-10-11T11:20:30.767Z,50.68
2022-10-11T11:25:44.873Z,50.15
2022-10-11T11:30:57.728Z,49.99
2022-10-11T11:36:06.259Z,49.62
2022-10-11T11:41:16.161Z,49.02
2022-10-11T11:46:23.821Z,48.91
2022-10-11T11:51:37.832Z,48.39
2022-10-11T11:56:55.285Z,48.27
2022-10-11T12:02:55.309Z,48.17
2022-10-11T12:08:06.435Z,48.22
2022-10-11T12:13:18.507Z,48.18
2022-10-11T12:18:21.482Z,48.06
2022-10-11T12:23:29.574Z,47.65
2022-10-11T12:28:37.511Z,47.27
2022-10-11T12:33:39.707Z,47.28
2022-10-11T12:38:42.298Z,47.01
2022-10-11T12:43:50.590Z,47.18
2022-10-11T12:49:14.581Z,46.91
2022-10-11T12:54:43.033Z,47.53
2022-10-11T12:59:47.984Z,48.09
2022-10-11T13:04:50.290Z,48.79
2022-10-11T13:09:56.301Z,50.08
2022-10-11T13:15:05.916Z,50.53
2022-10-11T13:20:18.518Z,51.49
2022-10-11T13:25:23.898Z,52.22
2022-10-11T13:30:34.844Z,52.84
2022-10-11T13:35:38.945Z,53.37
2022-10-11T13:40:41.243Z,54.23
2022-10-11T13:45:43.590Z,53.97
2022-10-11T13:50:52.918Z,54.15
2022-10-11T13:55:59.749Z,54.00
2022-10-11T14:01:05.593Z,53.90
2022-10-11T14:06:08.872Z,54.07
2022-10-11T14:11:13.991Z,53.96
2022-10-11T14:16:19.350Z,54.00
2022-10-11T14:21:25.794Z,53.82
2022-10-11T14:26:36.273Z,53.84
2022-10-11T14:31:42.028Z,54.15
2022-10-11T14:36:44.450Z,54.00
2022-10-11T14:41:47.593Z,53.72
2022-10-11T14:46:54.033Z,53.64
2022-10-11T14:51:58.698Z,53.40
2022-10-11T14:57:03.396Z,53.35
2022-10-11T15:02:08.892Z,53.50
2022-10-11T15:07:13.419Z,53.24
2022-10-11T15:12:15.632Z,53.35
2022-10-11T15:17:18.054Z,53.07
2022-10-11T15:22:20.434Z,52.99
2022-10-11T15:27:25.997Z,53.05
2022-10-11T15:32:28.123Z,53.00
2022-10-11T15:37:33.783Z,53.12
2022-10-11T15:42:38.727Z,53.11
2022-10-11T15:47:40.965Z,53.14
2022-10-11T15:52:43.195Z,53.30
2022-10-11T15:57:45.790Z,53.45
2022-10-11T16:02:48.067Z,53.30
2022-10-11T16:07:53.903Z,53.42
2022-10-11T16:12:56.506Z,53.56
2022-10-11T16:17:58.748Z,53.31
2022-10-11T16:23:01.208Z,53.44
2022-10-11T16:28:04.193Z,53.41
2022-10-11T16:33:06.518Z,53.50
2022-10-11T16:38:10.463Z,53.67
2022-10-11T16:43:12.723Z,53.77
2022-10-11T16:48:14.910Z,53.81
2022-10-11T16:53:21.856Z,54.20
2022-10-11T16:58:24.482Z,54.52
2022-10-11T17:03:26.861Z,54.64
2022-10-11T17:08:29.685Z,54.88
2022-10-11T17:13:31.957Z,54.98
2022-10-11T17:18:34.288Z,55.13
2022-10-11T17:23:37.350Z,55.23
2022-10-11T17:28:39.563Z,55.33
2022-10-11T17:33:41.900Z,55.41
2022-10-11T17:38:44.371Z,55.30
2022-10-11T17:43:47.147Z,55.49
2022-10-11T17:48:51.965Z,55.54
2022-10-11T17:53:54.769Z,55.62
2022-10-11T17:58:58.829Z,55.71
2022-10-11T18:04:03.598Z,55.79
2022-10-11T18:09:06.236Z,55.18
2022-10-11T18:14:08.701Z,55.20
2022-10-11T18:19:12.863Z,55.06
2022-10-11T18:24:17.038Z,54.69
2022-10-11T18:29:19.197Z,54.70
2022-10-11T18:34:21.356Z,54.73
2022-10-11T18:39:23.570Z,54.82
2022-10-11T18:44:25.893Z,54.69
2022-10-11T18:49:28.060Z,54.78
2022-10-11T18:54:30.262Z,54.31
2022-10-11T18:59:33.371Z,54.28
2022-10-11T19:04:35.522Z,54.19
2022-10-11T19:09:38.209Z,54.32
2022-10-11T19:14:40.574Z,54.24
2022-10-11T19:19:42.727Z,54.02
2022-10-11T19:24:46.139Z,53.79
2022-10-11T19:29:48.368Z,53.79
2022-10-11T19:34:51.122Z,53.73
2022-10-11T19:39:53.263Z,53.63
2022-10-11T19:44:55.661Z,53.46
2022-10-11T19:49:58.042Z,53.16
2022-10-11T19:55:00.199Z,53.12
2022-10-11T20:00:02.398Z,52.83
2022-10-11T20:05:04.935Z,52.72
2022-10-11T20:10:07.221Z,52.90
2022-10-11T20:15:09.831Z,52.52
2022-10-11T20:20:12.047Z,52.66
2022-10-11T20:25:14.242Z,52.89
2022-10-11T20:30:16.459Z,52.88
2022-10-11T20:35:18.611Z,52.90
2022-10-11T20:40:20.969Z,52.80
2022-10-11T20:45:23.269Z,53.19
2022-10-11T20:50:25.690Z,53.19
2022-10-11T20:55:28.252Z,53.19
2022-10-11T21:00:31.004Z,53.31
2022-10-11T21:05:33.722Z,53.46
2022-10-11T21:10:36.723Z,53.73
2022-10-11T21:15:38.963Z,53.84
2022-10-11T21:20:42.729Z,53.84
2022-10-11T21:25:45.306Z,53.95
2022-10-11T21:30:47.541Z,53.74
2022-10-11T21:35:49.743Z,54.06
2022-10-11T21:40:52.289Z,54.08
2022-10-11T21:45:54.597Z,53.97
2022-10-11T21:50:56.993Z,53.89
2022-10-11T21:56:01.900Z,53.86
2022-10-11T22:01:04.579Z,53.83
2022-10-11T22:06:06.931Z,53.85
2022-10-11T22:11:09.520Z,53.68
2022-10-11T22:16:14.030Z,53.82
2022-10-11T22:21:21.575Z,53.73
2022-10-11T22:26:31.207Z,54.01
2022-10-11T22:31:35.205Z,54.20
2022-10-11T22:36:38.360Z,54.25
2022-10-11T22:41:42.177Z,54.33
2022-10-11T22:46:44.333Z,54.46
2022-10-11T22:51:46.720Z,54.53
2022-10-11T22:56:49.010Z,54.60
2022-10-11T23:01:51.189Z,54.73
2022-10-11T23:06:53.454Z,54.95
2022-10-11T23:11:56.336Z,54.95
2022-10-11T23:16:58.492Z,55.12
2022-10-11T23:22:00.813Z,55.29
2022-10-11T23:27:03.008Z,55.08
2022-10-11T23:32:05.393Z,55.13
2022-10-11T23:37:07.954Z,55.42
2022-10-11T23:42:10.432Z,55.75
2022-10-11T23:47:12.601Z,56.00
2022-10-11T23:52:14.962Z,56.21
2022-10-11T23:57:17.137Z,56.39
